Tomas Coufal

Recruteur - Slavia Prague
2 Avr 2028
Dimanche
Processus

Personnalité

Adaptabilité (19) Ambition (7) Controverse (12) Loyauté (10) Pression (14) Professionnalisme (3) Sportivité (11) Tempérament (16)

Profil

Style d'entraînement Démocratique
Diplôme Continental A
Détermination 12
Gestion des joueurs 12
Motivation 11
Discipline 10
Satisfaction professionnelle
100%
Fatigue
0%
Rôle Recruteur
Salaire 29.3K p/s
Contrat 14.03.2029

Performance

Comportement Bon
Efficacité de l'entraînement
45%
Développement des joueurs
25%
Prévention des blessures
65%
Mise en place tactique
50%

Événements récents

A évalué un joueur 56j
A évalué un joueur 56j
A participé à une réunion de recrutement 56j
A recommandé une cible de transfert 56j
A recommandé une cible de transfert 56j

Suivi en cours

159
Joueur Club Statut Capacité Confiance Observé Dernière observation Dernier vote
Julián Quiñones Al-Qadisiyah Actif 143 / 153 40% 6 31.01.2028 -
Joe Gelhardt Hull City Actif 146 / 137 40% 2 31.01.2028 -
Morgan Whittaker Middlesbrough Actif 135 / 135 40% 2 31.01.2028 -
Oston O'runov Persepolis Actif 121 / 119 40% 1 31.01.2028 -
Aarón Molinas Defensa y Justicia Actif 128 / 129 40% 1 31.01.2028 -
Caio Vidal CSKA Sofia Actif 133 / 134 40% 1 31.01.2028 -
Musa Barrow Al-Khaleej Actif 142 / 135 40% 5 29.01.2028 -
Keinan Davis Udinese Actif 132 / 139 40% 3 29.01.2028 -
Steven Bergwijn Al-Ittihad Actif 152 / 156 40% 4 29.01.2028 -
Armstrong Oko-Flex Levski Actif 121 / 120 40% 1 29.01.2028 -
Kevin Zenón Boca Juniors Actif 129 / 129 40% 1 29.01.2028 -
Felipe Peña Biafore Lanús Actif 134 / 132 40% 1 29.01.2028 -
Youssef En-Nesyri Al-Ittihad Actif 146 / 150 40% 5 28.01.2028 -
Saldanha Al Wasl Actif 139 / 138 40% 3 28.01.2028 -
Aaron Connolly Leyton Orient Actif 124 / 126 40% 1 27.01.2028 -
Patson Daka Leicester City Actif 127 / 125 40% 1 27.01.2028 -
Callum O'Hare Sheffield United Actif 134 / 133 40% 4 26.01.2028 -
Germán Berterame Newcastle United Actif 145 / 142 40% 3 26.01.2028 -
Konstantin Tyukavin Lokomotiv Moscow Actif 137 / 137 40% 3 26.01.2028 -
Sinclair Armstrong Notts County Actif 121 / 120 40% 1 25.01.2028 -
Diego Luna Real Salt Lake Actif 127 / 127 40% 1 25.01.2028 -
Relebohile Mofokeng Orlando Pirates Actif 130 / 132 40% 3 24.01.2028 -
Alexis Cuello San Lorenzo Actif 125 / 126 40% 2 24.01.2028 -
Lukáš Červ Viktoria Plzen Actif 139 / 136 40% 1 24.01.2028 -
Rumarn Burrell Queens Park Rangers Actif 123 / 131 40% 3 21.01.2028 -
Amar Memić Viktoria Plzen Actif 132 / 137 40% 1 21.01.2028 -
Million Manhoef Stoke City Actif 137 / 136 40% 1 21.01.2028 -
Joaquín Gho Argentinos Juniors Actif 128 / 128 40% 1 21.01.2028 -
Everton Bala Levski Actif 132 / 127 40% 2 17.01.2028 -
Mojmír Chytil Viktoria Plzen Actif 140 / 132 40% 6 16.01.2028 -
Jordan Larsson Al-Ettifaq Actif 129 / 121 40% 3 16.01.2028 -
Kwadwo Duah Ludogorets Actif 134 / 130 40% 5 15.01.2028 -
Javi Puado Espanyol Actif 157 / 152 40% 1 15.01.2028 -
Yousef Salech Cardiff City Actif 134 / 135 40% 1 14.01.2028 -
Christian Kouamé CSKA Moscow Actif 132 / 129 40% 2 12.01.2028 -
Beto Everton Actif 144 / 144 40% 2 10.01.2028 -
Luca Langoni Besiktas Actif 132 / 137 40% 3 10.01.2028 -
Richard Koné Queens Park Rangers Actif 124 / 128 40% 1 10.01.2028 -
Filip Kubala Banik Ostrava Actif 127 / 122 76% 1 07.01.2028 Approuver
Juan Carlos Arana Racing Santander Actif 138 / 131 40% 1 07.01.2028 -
Ignacio Russo Tigre Actif 126 / 128 40% 1 07.01.2028 -
Agustín Anello Spartak Moscow Actif 134 / 130 40% 2 05.01.2028 -
August Priske Birmingham Actif 140 / 141 40% 2 04.01.2028 -
Alan Lescano Argentinos Juniors Actif 131 / 134 40% 1 04.01.2028 -
Håkon Evjen Bodo/Glimt Actif 134 / 136 40% 1 04.01.2028 -
Fashion Sakala Al-Fayha Actif 140 / 124 40% 5 02.01.2028 -
Ramón Mierez Al Nasr Actif 120 / 125 40% 2 31.08.2027 -
George Hirst Stoke City Actif 141 / 137 40% 2 31.08.2027 -
Facundo Kruspzky Al Wahda Actif 120 / 122 40% 1 31.08.2027 -
Hamzat Ojediran Colorado Rapids Actif 125 / 124 40% 1 31.08.2027 -
Mamadou Coulibaly Al Jazira Actif 124 / 136 40% 2 29.08.2027 -
Brahima Diarra Al Wahda Actif 124 / 124 40% 2 29.08.2027 -
Theo Corbeanu Toronto FC Actif 131 / 128 40% 1 29.08.2027 -
Rayan Bournemouth Actif 140 / 142 40% 2 27.08.2027 -
Cheikh Sabaly Vancouver Whitecaps Actif 133 / 128 40% 1 27.08.2027 -
Jesus Ferreira Seattle Sounders Actif 136 / 132 40% 2 26.08.2027 -
Breel Embolo Los Angeles Football Club Actif 140 / 135 40% 2 24.08.2027 -
Elias Baum Eintracht Frankfurt Actif 128 / 139 40% 1 23.08.2027 -
Jack McGlynn Houston Dynamo Actif 134 / 131 40% 1 23.08.2027 -
Otto Stange Hamburger SV Actif 114 / 124 40% 1 21.08.2027 -
Ramiro Peralta Juventud Actif 118 / 117 40% 1 21.08.2027 -
Jonathan Rowe Bologna Actif 131 / 136 40% 1 19.08.2027 -
Filip Stojilković Pisa Actif 130 / 133 40% 2 18.08.2027 -
Dany Mota Monza Actif 139 / 132 40% 4 17.08.2027 -
David Romero Parma Actif 121 / 129 40% 1 17.08.2027 -
Stiven Shpendi Empoli Actif 123 / 121 40% 1 17.08.2027 -
Tommaso Barbieri Cremonese Actif 132 / 137 40% 1 17.08.2027 -
Stefano Di Mario Virtus Entella Actif 127 / 125 40% 1 17.08.2027 -
Ola Brynhildsen Bodo/Glimt Actif 137 / 122 40% 5 15.08.2027 -
Akor Adams Venezia Actif 152 / 143 40% 3 15.08.2027 -
Sam Surridge Nashville SC Actif 136 / 130 40% 2 15.08.2027 -
Ahmed Qasem Nashville SC Actif 117 / 125 40% 1 15.08.2027 -
Konan N'Dri Lecce Actif 128 / 129 40% 2 13.08.2027 -
Martín Ojeda Orlando City Actif 142 / 136 40% 1 12.08.2027 -
Samuele Angori Pisa Actif 130 / 138 40% 1 12.08.2027 -
Bjorn Meijer Sampdoria Actif 131 / 132 40% 1 11.08.2027 -
Alex Amorim Genoa Actif 141 / 137 40% 1 11.08.2027 -
Kian Fitz-Jim Torino Actif 136 / 138 40% 1 10.08.2027 -
Alessandro Ventre Vis Pesaro Actif 99 / 102 40% 1 10.08.2027 -
Teo Rodríguez Pagano San Lorenzo Actif 114 / 121 40% 1 10.08.2027 -
Elijah Adebayo Luton Town Actif 123 / 132 40% 3 07.08.2027 -
Victor Torp Coventry City Actif 126 / 136 40% 1 06.08.2027 -
Yoane Wissa Newcastle United Actif 146 / 153 40% 4 05.08.2027 -
Willem Geubbels Lecce Actif 139 / 132 40% 1 03.08.2027 -
Aune Heggebø West Bromwich Albion Actif 126 / 136 40% 1 03.08.2027 -
Myles Peart-Harris Bristol Rovers Actif 125 / 126 40% 2 01.08.2027 -
Ryan Oné Sheffield United Actif 126 / 125 40% 1 01.08.2027 -
Ra'ees Bangura-Williams Millwall Actif 128 / 127 40% 1 01.08.2027 -
Aidomo Emakhu Oxford United Actif 118 / 128 40% 1 31.07.2027 -
Jacques Ekomié Wrexham Actif 135 / 141 40% 1 31.07.2027 -
Ethan Williams Peterborough United Actif 111 / 123 40% 1 31.07.2027 -
Joe Knight Stevenage Actif 97 / 114 40% 1 29.07.2027 -
T-Jay Parfitt Colchester United Actif 85 / 99 40% 1 29.07.2027 -
Lewis Bate Stockport County Actif 124 / 129 40% 3 28.07.2027 -
Othmane Maamma Watford Actif 132 / 125 40% 1 28.07.2027 -
Tammer Kumar West Bromwich Albion Actif 116 / 116 40% 1 28.07.2027 -
Santiago Pierotti Lecce Actif 134 / 129 40% 1 28.07.2027 -
Boulaye Dia Lazio Actif 152 / 149 40% 1 28.07.2027 -
Tijjani Noslin Lazio Actif 131 / 136 40% 1 24.07.2027 -
Cian Ashford Cardiff City Actif 130 / 128 40% 1 24.07.2027 -
Alex Robertson Cardiff City Actif 122 / 123 40% 2 23.07.2027 -
Abu Kamara Portsmouth Actif 125 / 117 40% 1 23.07.2027 -
Afriyie Sulemana Hasaacas Actif 90 / 106 40% 1 23.07.2027 -
Caleb Yirenkyi Coventry City Actif 134 / 149 40% 1 23.07.2027 -
Pejman Azmoun Gostaresh Foulad Actif 130 / 126 40% 7 20.07.2027 -
Lukas Nmecha Leeds United Actif 129 / 131 40% 1 20.07.2027 -
Prosper Obah Shakhtar Actif 129 / 134 40% 6 17.07.2027 -
Vitinha Genoa Actif 127 / 135 40% 1 15.07.2027 -
Kauã Elias Shakhtar Actif 138 / 142 40% 8 14.07.2027 -
Mirlind Daku Spartak Moscow Actif 136 / 128 40% 4 14.07.2027 -
Cesare Casadei Torino Actif 139 / 135 40% 1 14.07.2027 -
Alfie Devine Preston Actif 119 / 118 40% 1 14.07.2027 -
Simone Kosijer Triestina Actif 96 / 98 40% 1 13.07.2027 -
Jack Shorrock Port Vale Actif 92 / 104 40% 1 13.07.2027 -
Gady Beyuku Modena Actif 112 / 125 40% 1 13.07.2027 -
Toni Fruk HNK Rijeka Actif 134 / 140 40% 5 12.07.2027 -
Jamie McDonnell Oxford United Actif 118 / 122 40% 1 12.07.2027 -
Alex Lowry Wycombe Wanderers Actif 128 / 118 40% 1 08.07.2027 -
Malik Mothersille Stockport County Actif 112 / 126 40% 1 08.07.2027 -
Kévin Denkey FC Cincinnati Actif 127 / 124 40% 2 02.07.2027 -
Neal Maupay Olympique de Marseille Actif 135 / 143 40% 1 01.07.2027 -
Moussa Dembélé Spartak Moscow Actif 132 / 127 40% 1 30.06.2027 -
Federico Bonazzoli Bologna Actif 131 / 135 40% 4 26.06.2027 -
Dion Beljo Dinamo Zagreb Actif 130 / 134 40% 8 24.06.2027 -
Randy Nteka Rayo Vallecano Actif 138 / 123 40% 3 24.06.2027 -
Romano Floriani Mussolini Avellino Actif 124 / 123 40% 2 24.06.2027 -
Chem Campbell Stevenage Actif 118 / 115 40% 2 24.06.2027 -
Marlon Gomes Shakhtar Actif 136 / 137 40% 1 23.06.2027 -
Ryan Trevitt AFC Wimbledon Actif 112 / 124 40% 1 23.06.2027 -
Mfundo Vilakazi Kaizer Chiefs Actif 118 / 122 40% 1 23.06.2027 -
Adam Armstrong Wolverhampton Actif 120 / 131 40% 2 15.06.2027 -
Bruno Barticciotto Olympique Lyonnais Actif 134 / 124 40% 1 10.06.2027 -
Tommaso Milanese Ascoli Actif 117 / 114 40% 1 09.06.2027 -
Erick Marcus Ludogorets Actif 120 / 127 40% 2 30.01.2027 -
Victor Parada Spartak Moscow Actif 119 / 125 40% 1 30.01.2027 -
Nestory Irankunda Watford Actif 126 / 131 40% 1 28.01.2027 -
Jayden Nelson Bolton Wanderers Actif 111 / 117 40% 1 24.01.2027 -
Nicolás Arévalo Metalist Actif 118 / 116 40% 1 23.01.2027 -
Lindon Emërllahu Polissia Actif 115 / 122 40% 1 23.01.2027 -
Hélio Varela Maccabi Tel Aviv Actif 115 / 127 40% 2 22.01.2027 -
Kellen Fisher Norwich City Actif 122 / 124 40% 1 17.01.2027 -
Tyler Goodrham Oxford United Actif 125 / 129 40% 2 15.01.2027 -
Talles Costa Honved Actif 114 / 117 40% 1 15.01.2027 -
Mohau Nkota Al-Hilal Actif 118 / 129 40% 1 11.01.2027 -
Sebastian Nebyla Jablonec Actif 113 / 117 40% 1 10.01.2027 -
Andre Brooks Sheffield United Actif 130 / 121 40% 2 09.01.2027 -
Tyreece Campbell Charlton Athletic Actif 115 / 125 40% 1 09.01.2027 -
Bongani Kekana SuperSport United Actif 136 / 137 40% 1 04.01.2027 -
Zeidane Inoussa Swansea City Actif 113 / 125 40% 1 03.01.2027 -
Kristoffer Lund Birmingham Actif 134 / 128 40% 1 03.01.2027 -
Griffin Yow New England Revolution Actif 118 / 127 40% 1 29.08.2026 -
Martin Cedidla Jablonec Actif 122 / 134 40% 1 26.08.2026 -
Telasco Segovia Inter Miami CF Actif 132 / 129 40% 2 24.08.2026 -
Emil Ceïde Rosenborg Actif 130 / 120 40% 1 24.08.2026 -
André Luiz Sporting Kansas City Actif 118 / 131 40% 1 19.08.2026 -
Patrik Wålemark Lech Actif 116 / 121 40% 1 18.08.2026 -
Qëndrim Zyba Slovan Liberec Actif 110 / 117 69% 1 10.08.2026 Approuver
José Gayà Valencia Actif 125 / 134 40% 1 02.08.2026 -
Álex Berenguer Athletic Bilbao Actif 141 / 156 40% 1 02.08.2026 -